createdAt,value
2023-04-27T00:07:19.961Z,6.07
2023-04-27T00:09:53.605Z,5.22
2023-04-27T00:15:15.446Z,5.80
2023-04-27T01:08:12.072Z,4.97
2023-04-27T01:17:49.887Z,5.43
2023-04-27T01:42:08.388Z,4.22
2023-04-27T01:44:47.401Z,5.30
2023-04-27T02:34:49.531Z,5.85
2023-04-27T02:37:43.784Z,4.50
2023-04-27T03:00:19.559Z,4.88
2023-04-27T03:02:57.230Z,5.15
2023-04-27T03:11:08.294Z,6.10
2023-04-27T03:13:49.582Z,5.15
2023-04-27T03:16:32.092Z,5.45
2023-04-27T03:21:43.211Z,5.90
2023-04-27T03:27:01.544Z,4.80
2023-04-27T03:52:27.561Z,5.10
2023-04-27T04:00:28.797Z,5.68
2023-04-27T04:06:12.990Z,6.25
2023-04-27T04:08:39.791Z,5.38
2023-04-27T04:11:06.740Z,6.03
2023-04-27T04:13:33.493Z,6.55
2023-04-27T04:16:05.653Z,7.18
2023-04-27T04:20:59.441Z,7.30
2023-04-27T04:23:27.247Z,6.88
2023-04-27T04:25:57.839Z,7.85
2023-04-27T04:28:25.409Z,7.10
2023-04-27T04:30:52.411Z,7.50
2023-04-27T04:33:19.524Z,7.55
2023-04-27T04:35:47.122Z,7.18
2023-04-27T04:38:14.258Z,8.02
2023-04-27T04:40:44.473Z,8.90
2023-04-27T04:43:13.419Z,7.82
2023-04-27T04:45:40.562Z,7.18
2023-04-27T04:48:07.446Z,8.00
2023-04-27T04:50:34.417Z,7.10
2023-04-27T04:53:01.475Z,7.47
2023-04-27T04:55:31.531Z,8.63
2023-04-27T04:57:58.272Z,8.27
2023-04-27T05:00:25.152Z,8.70
2023-04-27T05:02:52.057Z,7.95
2023-04-27T05:05:18.973Z,7.90
2023-04-27T05:07:45.840Z,6.80
2023-04-27T05:10:12.661Z,6.07
2023-04-27T05:12:39.542Z,5.88
2023-04-27T05:15:07.728Z,5.55
2023-04-27T05:17:34.603Z,6.75
2023-04-27T05:20:01.527Z,6.50
2023-04-27T05:22:28.322Z,7.75
2023-04-27T05:24:55.842Z,6.85
2023-04-27T05:27:22.763Z,6.43
2023-04-27T05:29:50.293Z,7.25
2023-04-27T05:32:17.157Z,6.22
2023-04-27T05:34:46.712Z,7.85
2023-04-27T05:37:14.975Z,6.93
2023-04-27T05:39:42.445Z,8.13
2023-04-27T05:42:09.406Z,7.70
2023-04-27T05:44:36.313Z,7.20
2023-04-27T05:47:03.195Z,7.65
2023-04-27T05:49:30.044Z,7.80
2023-04-27T05:51:59.051Z,8.57
2023-04-27T05:54:27.675Z,9.40
2023-04-27T05:56:54.597Z,8.90
2023-04-27T05:59:21.988Z,8.70
2023-04-27T06:01:49.051Z,7.82
2023-04-27T06:04:16.400Z,9.45
2023-04-27T06:06:44.943Z,8.73
2023-04-27T06:09:12.159Z,9.40
2023-04-27T06:11:39.265Z,9.18
2023-04-27T06:14:06.356Z,9.13
2023-04-27T06:16:33.497Z,8.63
2023-04-27T06:19:00.514Z,9.57
2023-04-27T06:21:28.224Z,8.00
2023-04-27T06:23:54.946Z,8.20
2023-04-27T06:26:21.734Z,7.85
2023-04-27T06:28:48.528Z,9.40
2023-04-27T06:31:15.484Z,8.43
2023-04-27T06:33:42.263Z,7.07
2023-04-27T06:36:09.256Z,8.13
2023-04-27T06:38:36.019Z,8.35
2023-04-27T06:41:03.303Z,8.43
2023-04-27T06:43:30.782Z,7.80
2023-04-27T06:45:57.563Z,7.50
2023-04-27T06:48:24.435Z,6.88
2023-04-27T06:50:52.075Z,6.85
2023-04-27T06:53:18.909Z,7.03
2023-04-27T06:55:47.528Z,5.93
2023-04-27T06:58:15.184Z,6.68
2023-04-27T07:00:42.022Z,7.22
2023-04-27T07:05:52.139Z,5.93
2023-04-27T07:08:18.891Z,6.20
2023-04-27T07:10:45.742Z,5.80
2023-04-27T07:13:12.644Z,6.80
2023-04-27T07:15:40.717Z,6.55
2023-04-27T07:18:07.504Z,6.45
2023-04-27T07:20:34.513Z,6.22
2023-04-27T07:23:01.276Z,6.35
2023-04-27T07:25:28.128Z,5.90
2023-04-27T07:27:55.078Z,6.10
2023-04-27T07:30:23.289Z,5.47
2023-04-27T07:32:54.557Z,5.18
2023-04-27T07:35:22.362Z,5.63
2023-04-27T07:37:49.417Z,5.45
2023-04-27T07:40:16.821Z,6.43
2023-04-27T07:42:43.849Z,5.25
2023-04-27T07:45:10.827Z,5.97
2023-04-27T07:47:39.121Z,5.70
2023-04-27T07:50:09.436Z,4.75
2023-04-27T07:52:37.232Z,6.28
2023-04-27T07:55:04.732Z,5.70
2023-04-27T07:57:31.781Z,4.45
2023-04-27T07:59:58.597Z,5.53
2023-04-27T08:02:30.460Z,4.72
2023-04-27T08:07:25.025Z,4.15
2023-04-27T08:09:52.648Z,4.50
2023-04-27T08:12:19.529Z,4.43
2023-04-27T08:14:47.116Z,5.32
2023-04-27T08:17:14.042Z,5.05
2023-04-27T08:19:41.509Z,4.47
2023-04-27T08:22:08.593Z,4.15
2023-04-27T08:24:35.412Z,4.50
2023-04-27T08:27:03.541Z,5.47
2023-04-27T08:29:30.644Z,4.85
2023-04-27T08:32:00.081Z,5.13
2023-04-27T08:34:29.250Z,5.00
2023-04-27T08:36:56.977Z,5.05
2023-04-27T08:39:24.954Z,5.50
2023-04-27T08:41:51.787Z,5.30
2023-04-27T08:44:18.530Z,4.22
2023-04-27T08:46:45.872Z,4.90
2023-04-27T08:49:15.208Z,4.78
2023-04-27T08:51:43.550Z,4.75
2023-04-27T08:54:10.318Z,5.15
2023-04-27T08:56:37.242Z,5.05
2023-04-27T08:59:12.816Z,5.32
2023-04-27T09:01:45.657Z,5.72
2023-04-27T09:04:12.560Z,4.60
2023-04-27T09:06:39.596Z,4.00
2023-04-27T09:09:09.701Z,5.35
2023-04-27T09:11:38.845Z,4.97
2023-04-27T09:14:21.069Z,4.82
2023-04-27T09:16:58.598Z,5.07
2023-04-27T09:19:27.691Z,5.35
2023-04-27T09:22:23.810Z,5.90
2023-04-27T09:24:52.402Z,4.75
2023-04-27T09:27:23.380Z,4.35
2023-04-27T09:29:50.337Z,5.23
2023-04-27T09:32:22.979Z,5.07
2023-04-27T09:38:16.906Z,4.50
2023-04-27T09:50:59.452Z,2.30
2023-04-27T09:53:49.642Z,2.63
2023-04-27T09:56:33.149Z,2.50
2023-04-27T09:59:17.071Z,2.28
2023-04-27T10:01:47.718Z,2.85
2023-04-27T10:04:33.614Z,2.00
2023-04-27T10:07:12.860Z,2.60
2023-04-27T10:09:46.343Z,2.80
2023-04-27T10:12:14.431Z,2.95
2023-04-27T10:14:52.544Z,3.28
2023-04-27T10:17:25.150Z,3.33
2023-04-27T10:20:28.697Z,2.67
2023-04-27T10:22:55.676Z,3.40
2023-04-27T10:25:23.681Z,2.72
2023-04-27T10:27:54.804Z,2.40
2023-04-27T10:30:26.268Z,3.00
2023-04-27T10:32:58.807Z,2.67
2023-04-27T10:35:53.463Z,2.53
2023-04-27T10:38:22.804Z,2.80
2023-04-27T10:41:05.068Z,2.88
2023-04-27T10:43:34.643Z,3.40
2023-04-27T10:46:09.560Z,2.95
2023-04-27T10:48:36.321Z,2.33
2023-04-27T10:51:03.873Z,2.92
2023-04-27T10:53:35.783Z,2.83
2023-04-27T10:56:03.897Z,2.90
2023-04-27T10:58:44.867Z,3.70
2023-04-27T11:01:24.980Z,2.97
2023-04-27T11:03:57.135Z,3.58
2023-04-27T11:06:24.442Z,3.50
2023-04-27T11:08:53.088Z,3.63
2023-04-27T11:11:20.345Z,3.50
2023-04-27T11:13:50.512Z,3.50
2023-04-27T11:16:19.463Z,3.40
2023-04-27T11:18:46.392Z,3.00
2023-04-27T11:21:15.630Z,3.28
2023-04-27T11:23:42.889Z,2.97
2023-04-27T11:26:10.855Z,2.85
2023-04-27T11:28:38.185Z,3.22
2023-04-27T11:31:05.226Z,3.10
2023-04-27T11:33:32.607Z,2.92
2023-04-27T11:36:00.083Z,3.10
2023-04-27T11:38:33.678Z,3.60
2023-04-27T11:41:26.159Z,3.08
2023-04-27T11:44:13.184Z,3.38
2023-04-27T11:46:44.939Z,3.25
2023-04-27T11:49:13.144Z,3.33
2023-04-27T11:51:40.506Z,3.20
2023-04-27T11:54:07.745Z,3.10
2023-04-27T11:56:39.547Z,3.40
2023-04-27T12:01:38.109Z,3.67
2023-04-27T12:04:05.505Z,3.30
2023-04-27T12:06:33.805Z,5.10
2023-04-27T12:09:01.017Z,4.10
2023-04-27T12:11:28.199Z,3.92
2023-04-27T12:13:55.881Z,5.25
2023-04-27T12:16:22.970Z,3.78
2023-04-27T12:18:52.746Z,3.15
2023-04-27T12:21:19.603Z,3.25
2023-04-27T12:23:46.496Z,3.38
2023-04-27T12:26:15.351Z,2.95
2023-04-27T12:28:42.347Z,2.85
2023-04-27T12:31:13.457Z,2.53
2023-04-27T12:33:40.252Z,2.35
2023-04-27T12:36:07.239Z,2.42
2023-04-27T12:38:34.002Z,2.30
2023-04-27T12:41:02.328Z,1.55
2023-04-27T12:43:29.438Z,2.65
2023-04-27T12:45:56.414Z,2.28
2023-04-27T12:48:23.752Z,2.00
2023-04-27T12:50:50.923Z,2.42
2023-04-27T12:53:17.808Z,1.90
2023-04-27T12:55:44.620Z,1.90
2023-04-27T12:58:11.341Z,2.20
2023-04-27T13:00:38.665Z,1.77
2023-04-27T13:03:06.884Z,1.95
2023-04-27T13:05:34.019Z,2.08
2023-04-27T13:08:01.301Z,1.98
2023-04-27T13:10:29.756Z,1.98
2023-04-27T13:12:56.598Z,2.15
2023-04-27T13:15:23.511Z,1.90
2023-04-27T13:17:53.195Z,2.03
2023-04-27T13:20:20.651Z,1.88
2023-04-27T13:22:47.399Z,2.40
2023-04-27T13:25:16.598Z,2.33
2023-04-27T13:27:43.490Z,2.25
2023-04-27T13:30:10.683Z,2.10
2023-04-27T13:32:37.797Z,2.00
2023-04-27T13:35:05.553Z,1.65
2023-04-27T13:37:32.522Z,1.73
2023-04-27T13:39:59.315Z,1.55
2023-04-27T13:42:29.431Z,1.70
2023-04-27T13:44:58.884Z,2.28
2023-04-27T13:47:25.697Z,2.05
2023-04-27T13:49:54.434Z,1.50
2023-04-27T13:52:21.307Z,1.52
2023-04-27T13:54:48.125Z,1.70
2023-04-27T13:57:14.996Z,2.40
2023-04-27T13:59:41.694Z,2.03
2023-04-27T14:02:09.054Z,1.80
2023-04-27T14:04:35.955Z,1.50
2023-04-27T14:07:02.899Z,1.42
2023-04-27T14:09:29.792Z,1.60
2023-04-27T14:11:57.632Z,2.00
2023-04-27T14:14:24.831Z,1.50
2023-04-27T14:19:27.374Z,1.23
2023-04-27T14:21:55.586Z,1.50
2023-04-27T14:24:22.362Z,1.48
2023-04-27T14:26:51.153Z,1.88
2023-04-27T14:29:18.981Z,1.42
2023-04-27T14:31:46.446Z,2.08
2023-04-27T14:34:18.942Z,1.70
2023-04-27T14:36:46.952Z,1.20
2023-04-27T14:39:13.871Z,1.25
2023-04-27T14:41:40.897Z,1.88
2023-04-27T14:44:09.532Z,2.80
2023-04-27T14:46:37.217Z,2.38
2023-04-27T14:49:04.054Z,1.90
2023-04-27T14:51:32.384Z,1.48
2023-04-27T14:53:59.259Z,1.73
2023-04-27T14:56:26.169Z,1.70
2023-04-27T14:58:53.000Z,1.48
2023-04-27T15:01:19.806Z,1.90
2023-04-27T15:03:51.035Z,1.90
2023-04-27T15:06:18.068Z,1.40
2023-04-27T15:08:45.626Z,2.03
2023-04-27T15:11:12.435Z,2.22
2023-04-27T15:13:39.178Z,1.83
2023-04-27T15:16:07.360Z,1.75
2023-04-27T15:18:35.287Z,1.73
2023-04-27T15:21:02.177Z,1.58
2023-04-27T15:23:28.927Z,1.65
2023-04-27T15:25:57.516Z,1.48
2023-04-27T15:28:24.723Z,1.73
2023-04-27T15:30:51.845Z,1.42
2023-04-27T15:33:19.076Z,1.55
2023-04-27T15:35:45.938Z,1.25
2023-04-27T15:38:16.145Z,1.40
2023-04-27T15:40:43.002Z,3.17
2023-04-27T15:43:09.920Z,2.80
2023-04-27T15:45:36.694Z,1.50
2023-04-27T15:48:03.793Z,1.98
2023-04-27T15:50:30.923Z,3.97
2023-04-27T15:52:57.650Z,4.70
2023-04-27T15:55:24.977Z,2.55
2023-04-27T15:57:51.691Z,1.98
2023-04-27T16:00:24.903Z,1.15
2023-04-27T16:02:52.044Z,1.67
2023-04-27T16:05:18.980Z,1.40
2023-04-27T16:07:46.131Z,1.85
2023-04-27T16:10:13.591Z,1.73
2023-04-27T16:12:40.947Z,2.00
2023-04-27T16:15:10.976Z,1.73
2023-04-27T16:17:38.466Z,1.40
2023-04-27T16:20:09.761Z,1.92
2023-04-27T16:22:37.753Z,1.40
2023-04-27T16:25:10.395Z,2.17
2023-04-27T16:27:38.016Z,2.38
2023-04-27T16:30:06.723Z,1.65
2023-04-27T16:32:35.396Z,1.85
2023-04-27T16:35:03.100Z,1.88
2023-04-27T16:37:30.021Z,2.25
2023-04-27T16:39:59.770Z,2.15
2023-04-27T16:42:26.715Z,1.80
2023-04-27T16:44:55.984Z,1.63
2023-04-27T16:47:22.972Z,1.73
2023-04-27T16:49:49.724Z,1.67
2023-04-27T16:52:17.177Z,1.83
2023-04-27T16:54:43.916Z,1.13
2023-04-27T16:57:10.759Z,1.50
2023-04-27T16:59:37.697Z,1.73
2023-04-27T17:02:20.956Z,1.75
2023-04-27T17:04:51.280Z,1.65
2023-04-27T17:07:18.394Z,1.50
2023-04-27T17:09:45.142Z,1.73
2023-04-27T17:12:13.396Z,1.90
2023-04-27T17:14:40.222Z,2.05
2023-04-27T17:17:07.241Z,2.25
2023-04-27T17:19:34.152Z,1.88
2023-04-27T17:22:00.952Z,2.53
2023-04-27T17:24:27.897Z,1.90
2023-04-27T17:26:54.686Z,1.65
2023-04-27T17:29:21.877Z,1.70
2023-04-27T17:31:50.303Z,1.52
2023-04-27T17:34:17.424Z,1.95
2023-04-27T17:36:44.245Z,1.92
2023-04-27T17:39:13.011Z,1.77
2023-04-27T17:41:40.190Z,2.05
2023-04-27T17:44:06.905Z,2.00
2023-04-27T17:46:33.723Z,1.85
2023-04-27T17:49:00.668Z,2.15
2023-04-27T17:51:34.048Z,1.52
2023-04-27T17:54:10.859Z,1.50
2023-04-27T17:56:40.737Z,1.50
2023-04-27T17:59:08.431Z,2.22
2023-04-27T18:01:35.569Z,2.05
2023-04-27T18:04:04.643Z,1.83
2023-04-27T18:06:32.142Z,2.15
2023-04-27T18:08:59.067Z,2.13
2023-04-27T18:11:26.578Z,2.30
2023-04-27T18:13:54.956Z,2.00
2023-04-27T18:16:21.982Z,2.30
2023-04-27T18:18:48.990Z,2.50
2023-04-27T18:21:16.073Z,2.80
2023-04-27T18:23:44.442Z,2.83
2023-04-27T18:26:11.805Z,2.72
2023-04-27T18:28:40.240Z,1.95
2023-04-27T18:31:17.717Z,3.20
2023-04-27T18:33:45.787Z,3.58
2023-04-27T18:36:12.786Z,3.22
2023-04-27T18:38:39.845Z,3.33
2023-04-27T18:41:07.634Z,2.60
2023-04-27T18:43:36.613Z,2.75
2023-04-27T18:46:04.563Z,2.90
2023-04-27T18:48:32.275Z,3.13
2023-04-27T18:50:59.095Z,2.70
2023-04-27T18:53:26.975Z,2.95
2023-04-27T18:55:53.786Z,2.92
2023-04-27T18:58:20.567Z,2.60
2023-04-27T19:00:47.304Z,2.97
2023-04-27T19:03:14.186Z,2.72
2023-04-27T19:05:43.156Z,2.60
2023-04-27T19:08:14.264Z,2.90
2023-04-27T19:10:44.094Z,3.80
2023-04-27T19:13:10.836Z,2.83
2023-04-27T19:15:37.668Z,3.28
2023-04-27T19:18:10.559Z,3.22
2023-04-27T19:20:38.605Z,2.90
2023-04-27T19:23:05.704Z,3.60
2023-04-27T19:25:32.582Z,3.40
2023-04-27T19:27:59.380Z,3.22
2023-04-27T19:30:27.416Z,3.65
2023-04-27T19:32:54.192Z,2.72
2023-04-27T19:35:23.657Z,3.33
2023-04-27T19:37:51.090Z,2.67
2023-04-27T19:40:18.262Z,2.83
2023-04-27T19:42:45.218Z,3.60
2023-04-27T19:45:12.204Z,3.70
2023-04-27T19:47:39.213Z,3.42
2023-04-27T19:50:06.713Z,3.90
2023-04-27T19:52:33.453Z,3.63
2023-04-27T19:55:00.366Z,4.00
2023-04-27T19:57:27.188Z,4.32
2023-04-27T19:59:54.058Z,4.13
2023-04-27T20:02:21.655Z,5.20
2023-04-27T20:04:48.888Z,4.70
2023-04-27T20:07:15.926Z,4.43
2023-04-27T20:09:42.908Z,4.50
2023-04-27T20:12:19.629Z,4.07
2023-04-27T20:14:56.615Z,3.83
2023-04-27T20:17:26.208Z,4.85
2023-04-27T20:19:56.508Z,4.30
2023-04-27T20:22:23.918Z,6.07
2023-04-27T20:24:50.844Z,7.60
2023-04-27T20:27:17.686Z,6.03
2023-04-27T20:29:46.632Z,5.93
2023-04-27T20:32:13.604Z,5.38
2023-04-27T20:34:40.430Z,5.80
2023-04-27T20:37:07.583Z,5.82
2023-04-27T20:39:35.046Z,5.13
2023-04-27T20:42:02.016Z,5.90
2023-04-27T20:44:28.807Z,6.13
2023-04-27T20:46:55.791Z,5.68
2023-04-27T20:49:31.930Z,4.82
2023-04-27T20:52:04.542Z,6.03
2023-04-27T20:54:34.212Z,5.05
2023-04-27T20:57:02.133Z,4.30
2023-04-27T20:59:28.968Z,4.38
2023-04-27T21:01:56.440Z,4.72
2023-04-27T21:04:26.170Z,4.88
2023-04-27T21:06:53.086Z,4.75
2023-04-27T21:09:19.868Z,4.07
2023-04-27T21:11:49.532Z,4.45
2023-04-27T21:14:16.593Z,4.40
2023-04-27T21:16:43.521Z,4.03
2023-04-27T21:19:14.616Z,3.90
2023-04-27T21:21:41.706Z,3.83
2023-04-27T21:24:08.781Z,4.47
2023-04-27T21:26:35.773Z,4.55
2023-04-27T21:29:05.382Z,4.85
2023-04-27T21:31:33.206Z,5.07
2023-04-27T21:34:00.163Z,4.53
2023-04-27T21:36:27.120Z,4.53
2023-04-27T21:38:53.929Z,4.80
2023-04-27T21:41:22.617Z,4.68
2023-04-27T21:43:49.491Z,4.82
2023-04-27T21:46:16.330Z,4.72
2023-04-27T21:48:43.112Z,5.70
2023-04-27T21:51:09.905Z,5.25
2023-04-27T21:53:36.714Z,4.72
2023-04-27T21:56:03.537Z,5.03
2023-04-27T21:58:30.459Z,5.53
2023-04-27T22:00:57.247Z,5.20
2023-04-27T22:03:24.347Z,4.57
2023-04-27T22:05:52.855Z,5.40
2023-04-27T22:08:19.972Z,5.28
2023-04-27T22:10:47.250Z,4.95
2023-04-27T22:13:19.174Z,5.40
2023-04-27T22:15:47.102Z,5.30
2023-04-27T22:18:14.983Z,4.95
2023-04-27T22:20:42.607Z,5.10
2023-04-27T22:23:09.937Z,4.82
2023-04-27T22:25:37.028Z,4.78
2023-04-27T22:28:03.937Z,3.97
2023-04-27T22:30:31.319Z,4.07
2023-04-27T22:32:58.242Z,3.55
2023-04-27T22:35:27.516Z,3.47
2023-04-27T22:37:55.892Z,3.55
2023-04-27T22:40:24.636Z,3.70
2023-04-27T22:42:52.852Z,3.75
2023-04-27T22:45:19.698Z,3.85
2023-04-27T22:47:46.556Z,4.18
2023-04-27T22:50:13.811Z,5.05
2023-04-27T22:52:44.139Z,5.20
2023-04-27T22:55:11.986Z,4.30
2023-04-27T22:57:39.743Z,4.30
2023-04-27T23:00:11.310Z,4.93
2023-04-27T23:02:42.253Z,4.82
2023-04-27T23:05:10.901Z,4.70
2023-04-27T23:07:38.316Z,5.20
2023-04-27T23:10:06.028Z,4.32
2023-04-27T23:12:33.163Z,5.05
2023-04-27T23:15:00.078Z,5.50
2023-04-27T23:17:33.027Z,5.88
2023-04-27T23:20:01.589Z,4.60
2023-04-27T23:22:28.841Z,4.82
2023-04-27T23:24:55.631Z,4.63
2023-04-27T23:27:23.674Z,5.63
2023-04-27T23:29:50.651Z,4.35
2023-04-27T23:32:17.539Z,4.90
2023-04-27T23:34:44.311Z,4.50
2023-04-27T23:37:11.150Z,5.72
2023-04-27T23:39:38.350Z,4.95
2023-04-27T23:42:05.281Z,4.15
2023-04-27T23:44:32.121Z,4.32
2023-04-27T23:46:59.232Z,4.55
2023-04-27T23:49:26.048Z,4.22
2023-04-27T23:51:53.160Z,4.22
2023-04-27T23:54:19.907Z,4.75
2023-04-27T23:56:47.216Z,4.30
2023-04-27T23:59:15.065Z,4.40
